Imrikly — CNA5014 — position and weather

sailwx.info

Track history (hours):
 
Tides and Currents Weather Stations Pressure Air Temp Water Temp Dewpoint Dewpoint Depression Visibility Wind Speed Wind Dir Waves Ship Positions

Imrikly

Last reported at 2018-Apr-17 00:21 UTC. Time now 2018-Apr-22 12:27 UTC.
Position N 27°51' W 013°48'.

Length 106 m; draft 6.4 m.

Type: Tanker. MMSI: 242426300.

Date/timePositionNaut miles runAvg speedWind from/ knotsBaromVisibWave heightAir tempDewpointWater temp
2018-Apr-17 00:21N 27°51' W 013°48'410.7
2018-Apr-16 23:56N 27°54' W 013°45'510.7
2018-Apr-16 23:28N 27°58' W 013°42'510.7
2018-Apr-16 22:58N 28°03' W 013°39'510.6
2018-Apr-16 22:30N 28°07' W 013°35'610.7
2018-Apr-16 21:59N 28°12' W 013°32'510.8
2018-Apr-16 21:29N 28°16' W 013°28'510.9
2018-Apr-16 20:59N 28°20' W 013°24'511.0
2018-Apr-16 20:30N 28°25' W 013°21'511.1
2018-Apr-16 20:00N 28°29' W 013°17'611.3
2018-Apr-16 19:30N 28°34' W 013°13'611.5
2018-Apr-16 19:00N 28°38' W 013°10'1711.0
2018-Apr-16 17:29N 28°52' W 012°59'510.8
2018-Apr-16 16:59N 28°57' W 012°55'510.6
2018-Apr-16 16:30N 29°01' W 012°52'710.5
2018-Apr-16 15:49N 29°06' W 012°47'310.6
2018-Apr-16 15:30N 29°09' W 012°45'510.6
2018-Apr-16 15:00N 29°14' W 012°41'610.6
2018-Apr-16 14:24N 29°19' W 012°37'53810.7
2018-Apr-14 12:09N 35°59' W 005°30'1 8.4
2018-Apr-14 12:00N 35°59' W 005°29'4 8.1
2018-Apr-14 11:30N 36°01' W 005°25'4 7.2
2018-Apr-14 11:00N 36°05' W 005°24'0 0.3
2018-Apr-14 10:30N 36°05' W 005°24'1 2.9
2018-Apr-14 10:00N 36°06' W 005°24'1 1.1
2018-Apr-14 09:29N 36°06' W 005°25'0 0.1
2018-Apr-14 08:51N 36°06' W 005°25'1 3.9
2018-Apr-14 08:30N 36°07' W 005°24'1 0.5
2018-Apr-14 05:24N 36°08' W 005°26'0 0.0
2018-Apr-14 04:57N 36°08' W 005°26'0 0.0
2018-Apr-14 03:27N 36°08' W 005°26'0 0.0
2018-Apr-14 02:57N 36°08' W 005°26'0 0.0
2018-Apr-13 16:45N 36°08' W 005°26'0 0.0
2018-Apr-13 16:15N 36°08' W 005°26'0 0.0
2018-Apr-13 14:09N 36°08' W 005°26'0 0.0
2018-Apr-13 13:51N 36°08' W 005°26'0 0.0
2018-Apr-13 13:27N 36°08' W 005°26'0 0.0
2018-Apr-13 12:51N 36°08' W 005°26'0 0.0
2018-Apr-13 12:23N 36°08' W 005°26'0 0.7
2018-Apr-13 12:00N 36°08' W 005°25'2 3.5
2018-Apr-13 11:30N 36°07' W 005°24'1 2.4
2018-Apr-13 10:59N 36°06' W 005°25'0 0.0
2018-Apr-13 10:29N 36°06' W 005°25'0 0.0
2018-Apr-13 09:59N 36°06' W 005°25'0 0.1
2018-Apr-13 09:29N 36°06' W 005°25'0 0.0
2018-Apr-13 08:59N 36°06' W 005°25'0 0.0
2018-Apr-13 08:29N 36°06' W 005°25'0 0.0
2018-Apr-13 07:59N 36°06' W 005°25'0 0.0
2018-Apr-13 07:29N 36°06' W 005°25'0 0.0
2018-Apr-13 06:56N 36°06' W 005°25'0 0.0
2018-Apr-13 06:29N 36°06' W 005°25'0 0.0
2018-Apr-13 05:59N 36°06' W 005°25'0 0.1
2018-Apr-13 05:29N 36°06' W 005°25'0 0.0
2018-Apr-13 04:56N 36°06' W 005°25'0 0.0
2018-Apr-13 04:29N 36°06' W 005°25'0 0.0
2018-Apr-13 03:59N 36°06' W 005°25'0 0.0
2018-Apr-13 03:29N 36°06' W 005°25'0 0.0
2018-Apr-13 02:59N 36°06' W 005°25'0 0.0
2018-Apr-13 02:20N 36°06' W 005°25'0 0.0
2018-Apr-13 01:59N 36°06' W 005°25'0 0.0
2018-Apr-13 01:29N 36°06' W 005°25'0 0.1
2018-Apr-13 00:59N 36°06' W 005°25'0 0.0
2018-Apr-13 00:29N 36°06' W 005°25'0 0.0
2018-Apr-12 23:59N 36°06' W 005°25'0 0.1
2018-Apr-12 23:29N 36°06' W 005°25'0 0.0
2018-Apr-12 22:59N 36°06' W 005°25'0 0.0
2018-Apr-12 22:29N 36°06' W 005°25'0 0.0
2018-Apr-12 21:59N 36°06' W 005°25'0 0.1
2018-Apr-12 21:11N 36°06' W 005°25'0 0.0
2018-Apr-12 20:59N 36°06' W 005°25'0 0.0
2018-Apr-12 20:26N 36°06' W 005°25'0 0.1
2018-Apr-12 19:59N 36°06' W 005°25'0 0.0
2018-Apr-12 19:29N 36°06' W 005°25'0 0.0
2018-Apr-12 18:59N 36°06' W 005°25'0 0.0
2018-Apr-12 18:29N 36°06' W 005°25'0 0.1
2018-Apr-12 17:59N 36°06' W 005°25'0 0.0
2018-Apr-12 17:29N 36°06' W 005°25'0 0.0
2018-Apr-12 16:59N 36°06' W 005°25'0 0.1
2018-Apr-12 16:29N 36°06' W 005°25'0 0.1
2018-Apr-12 15:56N 36°06' W 005°25'0 0.0
2018-Apr-12 15:29N 36°06' W 005°25'0 0.2
2018-Apr-12 14:59N 36°06' W 005°25'0 0.0
2018-Apr-12 14:29N 36°06' W 005°25'0 0.0
2018-Apr-12 13:59N 36°06' W 005°25'0 0.0
2018-Apr-12 13:29N 36°06' W 005°25'0 0.0
2018-Apr-12 12:59N 36°06' W 005°25'0 0.0
2018-Apr-12 12:29N 36°06' W 005°25'0 0.0
2018-Apr-12 11:59N 36°06' W 005°25'0 0.0
2018-Apr-12 11:26N 36°06' W 005°25'0 0.0
2018-Apr-12 10:59N 36°06' W 005°25'0 0.0
2018-Apr-12 10:29N 36°06' W 005°25'0 0.0
2018-Apr-12 09:41N 36°06' W 005°25'0 0.0
2018-Apr-12 09:26N 36°06' W 005°25'0 0.0
2018-Apr-12 08:50N 36°06' W 005°25'0 0.0
2018-Apr-12 08:29N 36°06' W 005°25'0 0.0
2018-Apr-12 07:59N 36°06' W 005°25'0 0.1
2018-Apr-12 07:29N 36°06' W 005°25'0 0.0
2018-Apr-12 05:41N 36°06' W 005°25'0 0.0
2018-Apr-12 05:29N 36°06' W 005°25'0 0.0
2018-Apr-12 04:59N 36°06' W 005°25'0 0.0
2018-Apr-12 04:23N 36°06' W 005°25'0 0.1
2018-Apr-12 03:59N 36°06' W 005°25'0 0.0
2018-Apr-12 03:29N 36°06' W 005°25'0 0.0
2018-Apr-12 02:59N 36°06' W 005°25'0 0.0
2018-Apr-12 02:29N 36°06' W 005°25'0 0.0
2018-Apr-12 01:59N 36°06' W 005°25'0 0.1
2018-Apr-12 01:29N 36°06' W 005°25'0 0.1
2018-Apr-12 00:59N 36°06' W 005°25'0 0.0
2018-Apr-12 00:29N 36°06' W 005°25'0 0.0
2018-Apr-11 23:59N 36°06' W 005°25'0 0.1
2018-Apr-11 23:27N 36°06' W 005°25'1 2.1
2018-Apr-11 23:00N 36°06' W 005°24'5 9.0
2018-Apr-11 22:30N 36°02' W 005°21'4 8.8
2018-Apr-11 22:00N 35°58' W 005°24'813.0
2018-Apr-11 21:23N 35°56' W 005°34'  
2018-Apr-07 12:36N 35°56' W 005°33'2 8.9
2018-Apr-07 12:26N 35°55' W 005°31'  
Track history (hours):
 
Tides and Currents Weather Stations Pressure Air Temp Water Temp Dewpoint Dewpoint Depression Visibility Wind Speed Wind Dir Waves Ship Positions

Imrikly

Last reported at 2018-Apr-17 00:21 UTC. Time now 2018-Apr-22 12:27 UTC.
Position N 27°51' W 013°48'.

Length 106 m; draft 6.4 m.

Type: Tanker. MMSI: 242426300.

Date/timePositionNaut miles runAvg speedWind from/ knotsBaromVisibWave heightAir tempDewpointWater temp
2018-Apr-17 00:21N 27°51' W 013°48'410.7
2018-Apr-16 23:56N 27°54' W 013°45'510.7
2018-Apr-16 23:28N 27°58' W 013°42'510.7
2018-Apr-16 22:58N 28°03' W 013°39'510.6
2018-Apr-16 22:30N 28°07' W 013°35'610.7
2018-Apr-16 21:59N 28°12' W 013°32'510.8
2018-Apr-16 21:29N 28°16' W 013°28'510.9
2018-Apr-16 20:59N 28°20' W 013°24'511.0
2018-Apr-16 20:30N 28°25' W 013°21'511.1
2018-Apr-16 20:00N 28°29' W 013°17'611.3
2018-Apr-16 19:30N 28°34' W 013°13'611.5
2018-Apr-16 19:00N 28°38' W 013°10'1711.0
2018-Apr-16 17:29N 28°52' W 012°59'510.8
2018-Apr-16 16:59N 28°57' W 012°55'510.6
2018-Apr-16 16:30N 29°01' W 012°52'710.5
2018-Apr-16 15:49N 29°06' W 012°47'310.6
2018-Apr-16 15:30N 29°09' W 012°45'510.6
2018-Apr-16 15:00N 29°14' W 012°41'610.6
2018-Apr-16 14:24N 29°19' W 012°37'53810.7
2018-Apr-14 12:09N 35°59' W 005°30'1 8.4
2018-Apr-14 12:00N 35°59' W 005°29'4 8.1
2018-Apr-14 11:30N 36°01' W 005°25'4 7.2
2018-Apr-14 11:00N 36°05' W 005°24'0 0.3
2018-Apr-14 10:30N 36°05' W 005°24'1 2.9
2018-Apr-14 10:00N 36°06' W 005°24'1 1.1
2018-Apr-14 09:29N 36°06' W 005°25'0 0.1
2018-Apr-14 08:51N 36°06' W 005°25'1 3.9
2018-Apr-14 08:30N 36°07' W 005°24'1 0.5
2018-Apr-14 05:24N 36°08' W 005°26'0 0.0
2018-Apr-14 04:57N 36°08' W 005°26'0 0.0
2018-Apr-14 03:27N 36°08' W 005°26'0 0.0
2018-Apr-14 02:57N 36°08' W 005°26'0 0.0
2018-Apr-13 16:45N 36°08' W 005°26'0 0.0
2018-Apr-13 16:15N 36°08' W 005°26'0 0.0
2018-Apr-13 14:09N 36°08' W 005°26'0 0.0
2018-Apr-13 13:51N 36°08' W 005°26'0 0.0
2018-Apr-13 13:27N 36°08' W 005°26'0 0.0
2018-Apr-13 12:51N 36°08' W 005°26'0 0.0
2018-Apr-13 12:23N 36°08' W 005°26'0 0.7
2018-Apr-13 12:00N 36°08' W 005°25'2 3.5
2018-Apr-13 11:30N 36°07' W 005°24'1 2.4
2018-Apr-13 10:59N 36°06' W 005°25'0 0.0
2018-Apr-13 10:29N 36°06' W 005°25'0 0.0
2018-Apr-13 09:59N 36°06' W 005°25'0 0.1
2018-Apr-13 09:29N 36°06' W 005°25'0 0.0
2018-Apr-13 08:59N 36°06' W 005°25'0 0.0
2018-Apr-13 08:29N 36°06' W 005°25'0 0.0
2018-Apr-13 07:59N 36°06' W 005°25'0 0.0
2018-Apr-13 07:29N 36°06' W 005°25'0 0.0
2018-Apr-13 06:56N 36°06' W 005°25'0 0.0
2018-Apr-13 06:29N 36°06' W 005°25'0 0.0
2018-Apr-13 05:59N 36°06' W 005°25'0 0.1
2018-Apr-13 05:29N 36°06' W 005°25'0 0.0
2018-Apr-13 04:56N 36°06' W 005°25'0 0.0
2018-Apr-13 04:29N 36°06' W 005°25'0 0.0
2018-Apr-13 03:59N 36°06' W 005°25'0 0.0
2018-Apr-13 03:29N 36°06' W 005°25'0 0.0
2018-Apr-13 02:59N 36°06' W 005°25'0 0.0
2018-Apr-13 02:20N 36°06' W 005°25'0 0.0
2018-Apr-13 01:59N 36°06' W 005°25'0 0.0
2018-Apr-13 01:29N 36°06' W 005°25'0 0.1
2018-Apr-13 00:59N 36°06' W 005°25'0 0.0
2018-Apr-13 00:29N 36°06' W 005°25'0 0.0
2018-Apr-12 23:59N 36°06' W 005°25'0 0.1
2018-Apr-12 23:29N 36°06' W 005°25'0 0.0
2018-Apr-12 22:59N 36°06' W 005°25'0 0.0
2018-Apr-12 22:29N 36°06' W 005°25'0 0.0
2018-Apr-12 21:59N 36°06' W 005°25'0 0.1
2018-Apr-12 21:11N 36°06' W 005°25'0 0.0
2018-Apr-12 20:59N 36°06' W 005°25'0 0.0
2018-Apr-12 20:26N 36°06' W 005°25'0 0.1
2018-Apr-12 19:59N 36°06' W 005°25'0 0.0
2018-Apr-12 19:29N 36°06' W 005°25'0 0.0
2018-Apr-12 18:59N 36°06' W 005°25'0 0.0
2018-Apr-12 18:29N 36°06' W 005°25'0 0.1
2018-Apr-12 17:59N 36°06' W 005°25'0 0.0
2018-Apr-12 17:29N 36°06' W 005°25'0 0.0
2018-Apr-12 16:59N 36°06' W 005°25'0 0.1
2018-Apr-12 16:29N 36°06' W 005°25'0 0.1
2018-Apr-12 15:56N 36°06' W 005°25'0 0.0
2018-Apr-12 15:29N 36°06' W 005°25'0 0.2
2018-Apr-12 14:59N 36°06' W 005°25'0 0.0
2018-Apr-12 14:29N 36°06' W 005°25'0 0.0
2018-Apr-12 13:59N 36°06' W 005°25'0 0.0
2018-Apr-12 13:29N 36°06' W 005°25'0 0.0
2018-Apr-12 12:59N 36°06' W 005°25'0 0.0
2018-Apr-12 12:29N 36°06' W 005°25'0 0.0
2018-Apr-12 11:59N 36°06' W 005°25'0 0.0
2018-Apr-12 11:26N 36°06' W 005°25'0 0.0
2018-Apr-12 10:59N 36°06' W 005°25'0 0.0
2018-Apr-12 10:29N 36°06' W 005°25'0 0.0
2018-Apr-12 09:41N 36°06' W 005°25'0 0.0
2018-Apr-12 09:26N 36°06' W 005°25'0 0.0
2018-Apr-12 08:50N 36°06' W 005°25'0 0.0
2018-Apr-12 08:29N 36°06' W 005°25'0 0.0
2018-Apr-12 07:59N 36°06' W 005°25'0 0.1
2018-Apr-12 07:29N 36°06' W 005°25'0 0.0
2018-Apr-12 05:41N 36°06' W 005°25'0 0.0
2018-Apr-12 05:29N 36°06' W 005°25'0 0.0
2018-Apr-12 04:59N 36°06' W 005°25'0 0.0
2018-Apr-12 04:23N 36°06' W 005°25'0 0.1
2018-Apr-12 03:59N 36°06' W 005°25'0 0.0
2018-Apr-12 03:29N 36°06' W 005°25'0 0.0
2018-Apr-12 02:59N 36°06' W 005°25'0 0.0
2018-Apr-12 02:29N 36°06' W 005°25'0 0.0
2018-Apr-12 01:59N 36°06' W 005°25'0 0.1
2018-Apr-12 01:29N 36°06' W 005°25'0 0.1
2018-Apr-12 00:59N 36°06' W 005°25'0 0.0
2018-Apr-12 00:29N 36°06' W 005°25'0 0.0
2018-Apr-11 23:59N 36°06' W 005°25'0 0.1
2018-Apr-11 23:27N 36°06' W 005°25'1 2.1
2018-Apr-11 23:00N 36°06' W 005°24'5 9.0
2018-Apr-11 22:30N 36°02' W 005°21'4 8.8
2018-Apr-11 22:00N 35°58' W 005°24'813.0
2018-Apr-11 21:23N 35°56' W 005°34'  
2018-Apr-07 12:36N 35°56' W 005°33'2 8.9
2018-Apr-07 12:26N 35°55' W 005°31'  

Dump ship's entire track history